Mildenhall, United Kingdom
Current Conditions -  °F | °C
As of 3:12 AM on Saturday 22 Nov 2014 (Local Time) from EGUN Reporting Station
Broken Clouds Broken Clouds  
Wind Chill: 50°   Ceiling: 800
Heat Index: 50°   Visibility: 6mi
Dew Point: 48°   Wind: 8mph
Humidity: 94%   Direction: 150°SSE
Pressure: 29.88"   Gusts: NA
Location:  52.35°N, 0.52°E
Report Text: EGUN 220312Z AUTO 15007KT 9999 BKN008 10/09 A2988 RMK AO2
Loading
Personal Weather Stations






























Interactive Weather Map New forecast layout! Learn more

10-Day Weather Forecast

Advertisements
Track Severe Weather on mobile